sensor_id;sensor_type;location;lat;lon;timestamp;pressure;altitude;pressure_sealevel;temperature;humidity
37132;BME280;23035;50.032;21.978;2023-04-21T00:04:58;66255.94;;;10.35;100.00
37132;BME280;23035;50.032;21.978;2023-04-21T00:10:05;66315.38;;;10.89;99.08
37132;BME280;23035;50.032;21.978;2023-04-21T00:15:10;66202.94;;;9.87;100.00
37132;BME280;23035;50.032;21.978;2023-04-21T00:20:15;66268.28;;;10.47;100.00
37132;BME280;23035;50.032;21.978;2023-04-21T00:25:20;66301.97;;;10.76;100.00
37132;BME280;23035;50.032;21.978;2023-04-21T00:30:24;66404.94;;;11.71;91.08
37132;BME280;23035;50.032;21.978;2023-04-21T00:35:30;66310.03;;;10.84;100.00
37132;BME280;23035;50.032;21.978;2023-04-21T00:40:35;66348.81;;;11.26;96.48
37132;BME280;23035;50.032;21.978;2023-04-21T00:45:39;66376.03;;;11.46;95.64
37132;BME280;23035;50.032;21.978;2023-04-21T00:50:45;66423.81;;;11.92;93.03
37132;BME280;23035;50.032;21.978;2023-04-21T00:55:49;66433.03;;;12.03;97.39
37132;BME280;23035;50.032;21.978;2023-04-21T01:00:54;66462.56;;;12.31;96.83
37132;BME280;23035;50.032;21.978;2023-04-21T01:05:59;66459.88;;;12.28;97.25
37132;BME280;23035;50.032;21.978;2023-04-21T01:11:09;66436.72;;;12.04;95.21
37132;BME280;23035;50.032;21.978;2023-04-21T01:16:15;66438.94;;;12.09;93.97
37132;BME280;23035;50.032;21.978;2023-04-21T01:21:22;66393.91;;;11.68;97.28
37132;BME280;23035;50.032;21.978;2023-04-21T01:26:27;66389.00;;;11.61;98.72
37132;BME280;23035;50.032;21.978;2023-04-21T01:31:31;66311.78;;;10.90;100.00
37132;BME280;23035;50.032;21.978;2023-04-21T01:36:36;66295.63;;;10.73;100.00
37132;BME280;23035;50.032;21.978;2023-04-21T01:41:41;66244.59;;;10.22;100.00
37132;BME280;23035;50.032;21.978;2023-04-21T01:46:46;66260.16;;;10.37;100.00
37132;BME280;23035;50.032;21.978;2023-04-21T01:51:50;66262.81;;;10.39;100.00
37132;BME280;23035;50.032;21.978;2023-04-21T01:56:55;66218.31;;;9.97;100.00
37132;BME280;23035;50.032;21.978;2023-04-21T02:02:00;66189.28;;;9.67;100.00
37132;BME280;23035;50.032;21.978;2023-04-21T02:07:07;66076.31;;;8.62;100.00
37132;BME280;23035;50.032;21.978;2023-04-21T02:12:13;66103.09;;;8.87;100.00
37132;BME280;23035;50.032;21.978;2023-04-21T02:17:17;66057.84;;;8.52;100.00
37132;BME280;23035;50.032;21.978;2023-04-21T02:22:21;66050.19;;;8.40;100.00
37132;BME280;23035;50.032;21.978;2023-04-21T02:27:27;66118.63;;;9.02;100.00
37132;BME280;23035;50.032;21.978;2023-04-21T02:32:34;66100.50;;;8.87;100.00
37132;BME280;23035;50.032;21.978;2023-04-21T02:37:39;66059.19;;;8.46;100.00
37132;BME280;23035;50.032;21.978;2023-04-21T02:42:53;66015.72;;;8.02;100.00
37132;BME280;23035;50.032;21.978;2023-04-21T02:47:57;66035.44;;;8.18;100.00
37132;BME280;23035;50.032;21.978;2023-04-21T02:53:01;66095.53;;;8.78;100.00
37132;BME280;23035;50.032;21.978;2023-04-21T02:58:07;66140.69;;;9.26;100.00
37132;BME280;23035;50.032;21.978;2023-04-21T03:03:12;66155.59;;;9.37;100.00
37132;BME280;23035;50.032;21.978;2023-04-21T03:08:18;66184.53;;;9.65;100.00
37132;BME280;23035;50.032;21.978;2023-04-21T03:13:23;66185.63;;;9.66;100.00
37132;BME280;23035;50.032;21.978;2023-04-21T03:18:27;66174.91;;;9.56;100.00
37132;BME280;23035;50.032;21.978;2023-04-21T03:23:32;66087.56;;;8.73;100.00
37132;BME280;23035;50.032;21.978;2023-04-21T03:28:37;65923.22;;;7.16;100.00
37132;BME280;23035;50.032;21.978;2023-04-21T03:33:41;66009.38;;;7.98;100.00
37132;BME280;23035;50.032;21.978;2023-04-21T03:38:46;65808.28;;;6.07;100.00
37132;BME280;23035;50.032;21.978;2023-04-21T03:43:52;65760.19;;;5.61;100.00
37132;BME280;23035;50.032;21.978;2023-04-21T03:48:56;65813.13;;;6.12;100.00
37132;BME280;23035;50.032;21.978;2023-04-21T03:54:03;65912.53;;;7.06;100.00
37132;BME280;23035;50.032;21.978;2023-04-21T03:59:08;66021.25;;;8.12;100.00
37132;BME280;23035;50.032;21.978;2023-04-21T04:04:12;66125.06;;;9.08;100.00
37132;BME280;23035;50.032;21.978;2023-04-21T04:09:18;66189.44;;;9.72;100.00
37132;BME280;23035;50.032;21.978;2023-04-21T04:14:24;66190.50;;;9.73;100.00
37132;BME280;23035;50.032;21.978;2023-04-21T04:19:31;66208.75;;;9.90;100.00
37132;BME280;23035;50.032;21.978;2023-04-21T04:24:35;66217.78;;;9.96;100.00
37132;BME280;23035;50.032;21.978;2023-04-21T04:29:42;66258.69;;;10.40;100.00
37132;BME280;23035;50.032;21.978;2023-04-21T04:34:49;66307.44;;;10.84;100.00
37132;BME280;23035;50.032;21.978;2023-04-21T04:39:55;66293.47;;;10.71;100.00
37132;BME280;23035;50.032;21.978;2023-04-21T04:45:01;66286.41;;;10.61;100.00
37132;BME280;23035;50.032;21.978;2023-04-21T04:50:06;66237.06;;;10.15;100.00
37132;BME280;23035;50.032;21.978;2023-04-21T04:55:10;66132.03;;;9.15;100.00
37132;BME280;23035;50.032;21.978;2023-04-21T05:00:16;66139.25;;;9.29;100.00
37132;BME280;23035;50.032;21.978;2023-04-21T05:05:20;66144.88;;;9.27;100.00
37132;BME280;23035;50.032;21.978;2023-04-21T05:10:27;66142.28;;;9.27;100.00
37132;BME280;23035;50.032;21.978;2023-04-21T05:15:32;66140.50;;;9.20;100.00
37132;BME280;23035;50.032;21.978;2023-04-21T05:20:39;66179.63;;;9.58;100.00
37132;BME280;23035;50.032;21.978;2023-04-21T05:25:44;66201.69;;;9.81;100.00
37132;BME280;23035;50.032;21.978;2023-04-21T05:30:49;66210.88;;;9.92;100.00
37132;BME280;23035;50.032;21.978;2023-04-21T05:35:53;66236.53;;;10.14;100.00
37132;BME280;23035;50.032;21.978;2023-04-21T05:40:57;66240.38;;;10.20;100.00
37132;BME280;23035;50.032;21.978;2023-04-21T05:46:07;66301.97;;;10.76;97.22
37132;BME280;23035;50.032;21.978;2023-04-21T05:51:12;66344.97;;;11.19;93.86
37132;BME280;23035;50.032;21.978;2023-04-21T05:56:18;66471.25;;;12.42;85.65
37132;BME280;23035;50.032;21.978;2023-04-21T06:01:24;66507.69;;;12.74;79.98
37132;BME280;23035;50.032;21.978;2023-04-21T06:06:28;66637.16;;;13.94;75.81
37132;BME280;23035;50.032;21.978;2023-04-21T06:11:32;66529.16;;;12.94;77.12
37132;BME280;23035;50.032;21.978;2023-04-21T06:16:37;66485.66;;;12.53;80.26
37132;BME280;23035;50.032;21.978;2023-04-21T06:21:42;66531.69;;;12.91;76.54
37132;BME280;23035;50.032;21.978;2023-04-21T06:26:46;66601.59;;;13.58;72.44
37132;BME280;23035;50.032;21.978;2023-04-21T06:31:51;66557.47;;;13.16;71.55
37132;BME280;23035;50.032;21.978;2023-04-21T06:36:56;66609.28;;;13.70;71.06
37132;BME280;23035;50.032;21.978;2023-04-21T06:42:00;66662.97;;;14.18;65.94
37132;BME280;23035;50.032;21.978;2023-04-21T06:47:05;66653.91;;;14.12;62.94
37132;BME280;23035;50.032;21.978;2023-04-21T06:52:10;66660.81;;;14.16;66.37
37132;BME280;23035;50.032;21.978;2023-04-21T06:57:13;66763.75;;;15.18;62.09
37132;BME280;23035;50.032;21.978;2023-04-21T07:02:20;66839.44;;;15.83;58.02
37132;BME280;23035;50.032;21.978;2023-04-21T07:07:24;66690.94;;;14.45;59.77
37132;BME280;23035;50.032;21.978;2023-04-21T07:12:28;66827.13;;;15.73;57.37
37132;BME280;23035;50.032;21.978;2023-04-21T07:17:33;66656.03;;;14.14;65.05
37132;BME280;23035;50.032;21.978;2023-04-21T07:22:38;66718.38;;;14.71;59.94
37132;BME280;23035;50.032;21.978;2023-04-21T07:27:42;66783.44;;;15.30;58.32
37132;BME280;23035;50.032;21.978;2023-04-21T07:32:47;66657.03;;;14.13;60.39
37132;BME280;23035;50.032;21.978;2023-04-21T07:37:51;66768.44;;;15.18;57.62
37132;BME280;23035;50.032;21.978;2023-04-21T07:42:56;66816.38;;;15.63;54.01
37132;BME280;23035;50.032;21.978;2023-04-21T07:48:01;66793.28;;;15.44;52.07
37132;BME280;23035;50.032;21.978;2023-04-21T07:53:07;66775.44;;;15.25;52.45
37132;BME280;23035;50.032;21.978;2023-04-21T07:58:12;66891.75;;;16.34;51.16
37132;BME280;23035;50.032;21.978;2023-04-21T08:03:17;66855.66;;;16.00;49.97
37132;BME280;23035;50.032;21.978;2023-04-21T08:08:26;66934.88;;;16.75;49.05
37132;BME280;23035;50.032;21.978;2023-04-21T08:13:33;66866.91;;;16.09;52.09
37132;BME280;23035;50.032;21.978;2023-04-21T08:18:39;66943.34;;;16.78;52.13
37132;BME280;23035;50.032;21.978;2023-04-21T08:23:43;66865.97;;;16.13;51.62
37132;BME280;23035;50.032;21.978;2023-04-21T08:28:47;66902.06;;;16.47;51.50
37132;BME280;23035;50.032;21.978;2023-04-21T08:33:53;66869.75;;;16.16;49.89
37132;BME280;23035;50.032;21.978;2023-04-21T08:39:04;66896.22;;;16.44;49.30
37132;BME280;23035;50.032;21.978;2023-04-21T08:44:08;66848.75;;;15.96;52.26
37132;BME280;23035;50.032;21.978;2023-04-21T08:49:18;66907.47;;;16.52;51.23
37132;BME280;23035;50.032;21.978;2023-04-21T08:54:23;66939.81;;;16.82;47.87
37132;BME280;23035;50.032;21.978;2023-04-21T08:59:28;66892.84;;;16.35;44.20
37132;BME280;23035;50.032;21.978;2023-04-21T09:04:33;66874.03;;;16.20;40.62
37132;BME280;23035;50.032;21.978;2023-04-21T09:09:53;66939.28;;;16.82;41.92
37132;BME280;23035;50.032;21.978;2023-04-21T09:14:57;66955.97;;;16.98;39.67
37132;BME280;23035;50.032;21.978;2023-04-21T09:20:15;66923.06;;;16.67;40.64
37132;BME280;23035;50.032;21.978;2023-04-21T09:25:21;66924.09;;;16.65;37.62
37132;BME280;23035;50.032;21.978;2023-04-21T09:30:25;66983.94;;;17.22;36.04
37132;BME280;23035;50.032;21.978;2023-04-21T09:35:33;66992.16;;;17.34;34.68
37132;BME280;23035;50.032;21.978;2023-04-21T09:40:39;66925.69;;;16.67;37.79
37132;BME280;23035;50.032;21.978;2023-04-21T09:45:43;66932.72;;;16.73;38.73
37132;BME280;23035;50.032;21.978;2023-04-21T09:50:50;66864.34;;;16.11;40.31
37132;BME280;23035;50.032;21.978;2023-04-21T09:55:59;66934.28;;;16.72;40.89
37132;BME280;23035;50.032;21.978;2023-04-21T10:01:06;66956.97;;;16.96;40.26
37132;BME280;23035;50.032;21.978;2023-04-21T10:06:13;66921.94;;;16.63;39.76
37132;BME280;23035;50.032;21.978;2023-04-21T10:11:18;66970.91;;;17.07;39.33
37132;BME280;23035;50.032;21.978;2023-04-21T10:16:23;66892.22;;;16.32;38.84
37132;BME280;23035;50.032;21.978;2023-04-21T10:21:35;66872.97;;;16.19;37.28
37132;BME280;23035;50.032;21.978;2023-04-21T10:26:39;66952.66;;;16.92;36.42
37132;BME280;23035;50.032;21.978;2023-04-21T10:31:50;67075.69;;;18.11;35.29
37132;BME280;23035;50.032;21.978;2023-04-21T10:37:16;66974.34;;;17.17;36.02
37132;BME280;23035;50.032;21.978;2023-04-21T10:42:28;67046.94;;;17.78;33.85
37132;BME280;23035;50.032;21.978;2023-04-21T10:47:41;67102.56;;;18.33;33.41
37132;BME280;23035;50.032;21.978;2023-04-21T10:52:53;67030.81;;;17.66;33.28
37132;BME280;23035;50.032;21.978;2023-04-21T10:58:01;67030.34;;;17.68;32.37
37132;BME280;23035;50.032;21.978;2023-04-21T11:03:06;67150.13;;;18.81;32.05
37132;BME280;23035;50.032;21.978;2023-04-21T11:08:12;67137.66;;;18.67;30.14
37132;BME280;23035;50.032;21.978;2023-04-21T11:13:19;66988.78;;;17.26;31.74
37132;BME280;23035;50.032;21.978;2023-04-21T11:18:40;66995.84;;;17.35;32.69
37132;BME280;23035;50.032;21.978;2023-04-21T11:23:50;67044.41;;;17.81;31.48
37132;BME280;23035;50.032;21.978;2023-04-21T11:28:55;67051.41;;;17.88;32.08
37132;BME280;23035;50.032;21.978;2023-04-21T11:33:59;67341.78;;;20.59;28.71
37132;BME280;23035;50.032;21.978;2023-04-21T11:39:06;67432.13;;;21.46;28.10
37132;BME280;23035;50.032;21.978;2023-04-21T11:44:12;67332.06;;;20.50;28.66
37132;BME280;23035;50.032;21.978;2023-04-21T11:49:17;67662.06;;;23.60;26.25
37132;BME280;23035;50.032;21.978;2023-04-21T11:54:22;67600.81;;;23.00;25.87
37132;BME280;23035;50.032;21.978;2023-04-21T11:59:27;67502.91;;;22.11;25.25
37132;BME280;23035;50.032;21.978;2023-04-21T12:04:31;67496.41;;;22.04;26.28
37132;BME280;23035;50.032;21.978;2023-04-21T12:09:37;67448.28;;;21.59;26.46
37132;BME280;23035;50.032;21.978;2023-04-21T12:14:43;67511.53;;;22.16;26.03
37132;BME280;23035;50.032;21.978;2023-04-21T12:19:48;67620.94;;;23.24;25.97
37132;BME280;23035;50.032;21.978;2023-04-21T12:24:53;67475.88;;;21.85;24.70
37132;BME280;23035;50.032;21.978;2023-04-21T12:29:57;67571.09;;;22.75;24.80
37132;BME280;23035;50.032;21.978;2023-04-21T12:35:02;67604.66;;;23.06;24.87
37132;BME280;23035;50.032;21.978;2023-04-21T12:40:09;67591.09;;;22.91;24.72
37132;BME280;23035;50.032;21.978;2023-04-21T12:45:13;67710.19;;;24.03;24.05
37132;BME280;23035;50.032;21.978;2023-04-21T12:50:17;67511.09;;;22.21;25.61
37132;BME280;23035;50.032;21.978;2023-04-21T12:55:22;67634.47;;;23.37;26.04
37132;BME280;23035;50.032;21.978;2023-04-21T13:00:27;67651.22;;;23.50;25.31
37132;BME280;23035;50.032;21.978;2023-04-21T13:05:31;67708.63;;;24.04;23.99
37132;BME280;23035;50.032;21.978;2023-04-21T13:10:36;67511.09;;;22.21;25.50
37132;BME280;23035;50.032;21.978;2023-04-21T13:15:40;67573.25;;;22.77;24.95
37132;BME280;23035;50.032;21.978;2023-04-21T13:20:44;67572.66;;;22.74;25.29
37132;BME280;23035;50.032;21.978;2023-04-21T13:25:49;67474.78;;;21.84;26.37
37132;BME280;23035;50.032;21.978;2023-04-21T13:30:54;67422.41;;;21.37;27.26
37132;BME280;23035;50.032;21.978;2023-04-21T13:35:58;67650.13;;;23.49;25.62
37132;BME280;23035;50.032;21.978;2023-04-21T13:41:04;67710.25;;;24.06;25.23
37132;BME280;23035;50.032;21.978;2023-04-21T13:46:08;67485.06;;;21.94;26.48
37132;BME280;23035;50.032;21.978;2023-04-21T13:51:12;67399.59;;;21.13;27.15
37132;BME280;23035;50.032;21.978;2023-04-21T13:56:17;67544.03;;;22.49;26.55
37132;BME280;23035;50.032;21.978;2023-04-21T14:01:22;67605.69;;;23.05;25.70
37132;BME280;23035;50.032;21.978;2023-04-21T14:06:26;67607.97;;;23.12;26.19
37132;BME280;23035;50.032;21.978;2023-04-21T14:11:31;67731.94;;;24.28;25.30
37132;BME280;23035;50.032;21.978;2023-04-21T14:16:35;67871.75;;;25.57;24.87
37132;BME280;23035;50.032;21.978;2023-04-21T14:21:40;67728.59;;;24.20;24.42
37132;BME280;23035;50.032;21.978;2023-04-21T14:26:46;67675.59;;;23.73;25.00
37132;BME280;23035;50.032;21.978;2023-04-21T14:31:50;67647.91;;;23.44;25.34
37132;BME280;23035;50.032;21.978;2023-04-21T14:36:55;67729.16;;;24.21;24.94
37132;BME280;23035;50.032;21.978;2023-04-21T14:42:00;67764.97;;;24.57;24.77
37132;BME280;23035;50.032;21.978;2023-04-21T14:47:04;67673.44;;;23.71;26.34
37132;BME280;23035;50.032;21.978;2023-04-21T14:52:12;67583.50;;;22.84;26.52
37132;BME280;23035;50.032;21.978;2023-04-21T14:57:17;67561.88;;;22.66;27.38
37132;BME280;23035;50.032;21.978;2023-04-21T15:02:23;67393.72;;;21.10;28.06
37132;BME280;23035;50.032;21.978;2023-04-21T15:07:28;67507.75;;;22.13;27.42
37132;BME280;23035;50.032;21.978;2023-04-21T15:12:34;67517.59;;;22.27;27.62
37132;BME280;23035;50.032;21.978;2023-04-21T15:17:38;67304.97;;;20.22;29.01
37132;BME280;23035;50.032;21.978;2023-04-21T15:22:42;67341.31;;;20.61;29.59
37132;BME280;23035;50.032;21.978;2023-04-21T15:27:47;67421.28;;;21.34;28.97
37132;BME280;23035;50.032;21.978;2023-04-21T15:32:51;67460.66;;;21.68;27.97
37132;BME280;23035;50.032;21.978;2023-04-21T15:37:55;67482.34;;;21.91;28.20
37132;BME280;23035;50.032;21.978;2023-04-21T15:43:01;67466.72;;;21.79;27.68
37132;BME280;23035;50.032;21.978;2023-04-21T15:48:05;67474.25;;;21.84;27.60
37132;BME280;23035;50.032;21.978;2023-04-21T15:53:09;67439.53;;;21.46;28.50
37132;BME280;23035;50.032;21.978;2023-04-21T15:58:15;67510.97;;;22.16;27.97
37132;BME280;23035;50.032;21.978;2023-04-21T16:03:19;67474.78;;;21.84;27.83
37132;BME280;23035;50.032;21.978;2023-04-21T16:08:24;67477.50;;;21.87;28.01
37132;BME280;23035;50.032;21.978;2023-04-21T16:13:29;67399.56;;;21.11;28.79
37132;BME280;23035;50.032;21.978;2023-04-21T16:18:34;67447.22;;;21.58;28.63
37132;BME280;23035;50.032;21.978;2023-04-21T16:23:38;67376.84;;;20.89;29.21
37132;BME280;23035;50.032;21.978;2023-04-21T16:28:44;67151.69;;;18.80;32.09
37132;BME280;23035;50.032;21.978;2023-04-21T16:33:48;67094.94;;;18.24;33.45
37132;BME280;23035;50.032;21.978;2023-04-21T16:38:54;67073.38;;;18.03;34.59
37132;BME280;23035;50.032;21.978;2023-04-21T16:44:00;66992.94;;;17.25;36.02
37132;BME280;23035;50.032;21.978;2023-04-21T16:49:04;66904.16;;;16.46;36.16
37132;BME280;23035;50.032;21.978;2023-04-21T16:54:08;66878.84;;;16.22;37.89
37132;BME280;23035;50.032;21.978;2023-04-21T16:59:14;66899.28;;;16.42;37.81
37132;BME280;23035;50.032;21.978;2023-04-21T17:04:21;66877.22;;;16.21;38.67
37132;BME280;23035;50.032;21.978;2023-04-21T17:09:26;66882.06;;;16.25;38.99
37132;BME280;23035;50.032;21.978;2023-04-21T17:14:32;66813.19;;;15.63;40.21
37132;BME280;23035;50.032;21.978;2023-04-21T17:20:34;66793.13;;;15.39;41.24
37132;BME280;23035;50.032;21.978;2023-04-21T17:25:40;66766.19;;;15.13;42.98
37132;BME280;23035;50.032;21.978;2023-04-21T17:30:50;66778.50;;;15.23;43.39
37132;BME280;23035;50.032;21.978;2023-04-21T17:36:17;66714.53;;;14.64;44.24
37132;BME280;23035;50.032;21.978;2023-04-21T17:41:21;66705.47;;;14.58;45.22
37132;BME280;23035;50.032;21.978;2023-04-21T17:46:27;66659.19;;;14.15;45.60
37132;BME280;23035;50.032;21.978;2023-04-21T17:51:34;66658.66;;;14.14;46.05
37132;BME280;23035;50.032;21.978;2023-04-21T17:56:39;66648.00;;;14.06;46.38
37132;BME280;23035;50.032;21.978;2023-04-21T18:01:44;66636.06;;;13.93;47.05
37132;BME280;23035;50.032;21.978;2023-04-21T18:06:49;66634.00;;;13.93;46.78
37132;BME280;23035;50.032;21.978;2023-04-21T18:11:54;66623.72;;;13.81;48.00
37132;BME280;23035;50.032;21.978;2023-04-21T18:17:00;66596.22;;;13.53;48.57
37132;BME280;23035;50.032;21.978;2023-04-21T18:22:04;66578.03;;;13.38;49.05
37132;BME280;23035;50.032;21.978;2023-04-21T18:27:09;66558.03;;;13.16;50.44
37132;BME280;23035;50.032;21.978;2023-04-21T18:32:16;66556.41;;;13.15;51.43
37132;BME280;23035;50.032;21.978;2023-04-21T18:37:20;66555.34;;;13.14;51.46
37132;BME280;23035;50.032;21.978;2023-04-21T18:42:25;66548.34;;;13.07;52.13
37132;BME280;23035;50.032;21.978;2023-04-21T18:47:33;66526.41;;;12.89;52.13
37132;BME280;23035;50.032;21.978;2023-04-21T18:52:37;66545.75;;;13.07;52.84
37132;BME280;23035;50.032;21.978;2023-04-21T18:57:41;66522.03;;;12.82;53.63
37132;BME280;23035;50.032;21.978;2023-04-21T19:02:47;66537.16;;;12.99;54.77
37132;BME280;23035;50.032;21.978;2023-04-21T19:07:53;66508.81;;;12.77;55.16
37132;BME280;23035;50.032;21.978;2023-04-21T19:12:57;66520.50;;;12.83;55.30
37132;BME280;23035;50.032;21.978;2023-04-21T19:18:03;66491.31;;;12.51;57.03
37132;BME280;23035;50.032;21.978;2023-04-21T19:23:07;66515.66;;;12.79;56.44
37132;BME280;23035;50.032;21.978;2023-04-21T19:28:11;66486.56;;;12.49;57.58
37132;BME280;23035;50.032;21.978;2023-04-21T19:33:17;66481.28;;;12.46;60.35
37132;BME280;23035;50.032;21.978;2023-04-21T19:38:22;66524.78;;;12.87;60.44
37132;BME280;23035;50.032;21.978;2023-04-21T19:43:26;66467.31;;;12.33;61.41
37132;BME280;23035;50.032;21.978;2023-04-21T19:48:31;66509.75;;;12.73;62.13
37132;BME280;23035;50.032;21.978;2023-04-21T19:53:36;66468.38;;;12.34;63.48
37132;BME280;23035;50.032;21.978;2023-04-21T19:58:41;66436.25;;;12.06;65.46
37132;BME280;23035;50.032;21.978;2023-04-21T20:03:46;66394.19;;;11.61;66.35
37132;BME280;23035;50.032;21.978;2023-04-21T20:08:51;66337.03;;;11.14;71.51
37132;BME280;23035;50.032;21.978;2023-04-21T20:13:55;66351.81;;;11.21;68.07
37132;BME280;23035;50.032;21.978;2023-04-21T20:19:01;66403.31;;;11.70;65.23
37132;BME280;23035;50.032;21.978;2023-04-21T20:24:06;66460.78;;;12.24;61.41
37132;BME280;23035;50.032;21.978;2023-04-21T20:29:11;66418.91;;;11.85;69.55
37132;BME280;23035;50.032;21.978;2023-04-21T20:34:17;66387.28;;;11.57;72.13
37132;BME280;23035;50.032;21.978;2023-04-21T20:39:22;66372.16;;;11.40;73.04
37132;BME280;23035;50.032;21.978;2023-04-21T20:44:26;66302.97;;;10.75;76.67
37132;BME280;23035;50.032;21.978;2023-04-21T20:49:34;66149.09;;;9.29;87.93
37132;BME280;23035;50.032;21.978;2023-04-21T20:54:39;66293.94;;;10.69;79.35
37132;BME280;23035;50.032;21.978;2023-04-21T20:59:43;66309.94;;;10.81;82.92
37132;BME280;23035;50.032;21.978;2023-04-21T21:04:49;66124.53;;;9.08;94.38
37132;BME280;23035;50.032;21.978;2023-04-21T21:09:54;66205.88;;;9.83;89.12
37132;BME280;23035;50.032;21.978;2023-04-21T21:14:59;66245.69;;;10.23;84.84
37132;BME280;23035;50.032;21.978;2023-04-21T21:20:06;66028.13;;;8.16;100.00
37132;BME280;23035;50.032;21.978;2023-04-21T21:25:11;66047.13;;;8.27;100.00
37132;BME280;23035;50.032;21.978;2023-04-21T21:30:15;66108.44;;;8.93;97.64
37132;BME280;23035;50.032;21.978;2023-04-21T21:35:21;66092.94;;;8.78;99.26
37132;BME280;23035;50.032;21.978;2023-04-21T21:40:40;66156.22;;;9.40;99.97
37132;BME280;23035;50.032;21.978;2023-04-21T21:45:44;66205.44;;;9.85;93.39
37132;BME280;23035;50.032;21.978;2023-04-21T21:50:53;66055.97;;;8.43;100.00
37132;BME280;23035;50.032;21.978;2023-04-21T21:55:58;66048.38;;;8.33;100.00
37132;BME280;23035;50.032;21.978;2023-04-21T22:01:02;65982.09;;;7.72;100.00
37132;BME280;23035;50.032;21.978;2023-04-21T22:06:08;65990.56;;;7.78;100.00
37132;BME280;23035;50.032;21.978;2023-04-21T22:11:17;66105.69;;;8.87;100.00
37132;BME280;23035;50.032;21.978;2023-04-21T22:16:22;66215.72;;;9.97;100.00
37132;BME280;23035;50.032;21.978;2023-04-21T22:21:28;66172.56;;;9.48;100.00
37132;BME280;23035;50.032;21.978;2023-04-21T22:26:33;65986.81;;;7.74;100.00
37132;BME280;23035;50.032;21.978;2023-04-21T22:31:38;65963.72;;;7.50;100.00
37132;BME280;23035;50.032;21.978;2023-04-21T22:36:43;65943.13;;;7.38;100.00
37132;BME280;23035;50.032;21.978;2023-04-21T22:41:49;65999.13;;;7.86;100.00
37132;BME280;23035;50.032;21.978;2023-04-21T22:46:54;65926.53;;;7.22;100.00
37132;BME280;23035;50.032;21.978;2023-04-21T22:52:00;65856.84;;;6.51;100.00
37132;BME280;23035;50.032;21.978;2023-04-21T22:57:04;65936.16;;;7.31;100.00
37132;BME280;23035;50.032;21.978;2023-04-21T23:02:09;65998.16;;;7.88;100.00
37132;BME280;23035;50.032;21.978;2023-04-21T23:07:15;66030.78;;;8.19;100.00
37132;BME280;23035;50.032;21.978;2023-04-21T23:12:19;66018.91;;;8.05;100.00
37132;BME280;23035;50.032;21.978;2023-04-21T23:17:23;66036.59;;;8.22;100.00
37132;BME280;23035;50.032;21.978;2023-04-21T23:22:29;66026.88;;;8.10;100.00
37132;BME280;23035;50.032;21.978;2023-04-21T23:27:33;66011.59;;;8.03;100.00
37132;BME280;23035;50.032;21.978;2023-04-21T23:32:38;65853.09;;;6.47;100.00
37132;BME280;23035;50.032;21.978;2023-04-21T23:37:44;65904.16;;;7.03;100.00
37132;BME280;23035;50.032;21.978;2023-04-21T23:42:48;65996.97;;;7.84;100.00
37132;BME280;23035;50.032;21.978;2023-04-21T23:47:52;65982.28;;;7.78;100.00
37132;BME280;23035;50.032;21.978;2023-04-21T23:52:58;65959.16;;;7.53;100.00
37132;BME280;23035;50.032;21.978;2023-04-21T23:58:02;66017.31;;;8.03;100.00
